Curryville, Missouri
Current Conditions -  °F | °C
As of 10:15 PM on Thursday 20 Nov 2014 (Local Time) from KPPQ Reporting Station
Clear Clear  
Wind Chill: 18°   Ceiling: Unl
Heat Index: 18°   Visibility: 10mi
Dew Point: 11°   Wind: 0mph
Humidity: 75%   Direction: NA
Pressure: 30.33"   Gusts: NA
Location:  39.35°N, 91.34°W
Report Text: KPPQ 210415Z AUTO 00000KT 10SM CLR M08/M11 A3033 RMK AO2 T10771115 PWINO
Loading
Personal Weather Stations






























Interactive Weather Map New forecast layout! Learn more

10-Day Weather Forecast

Advertisements
Track Severe Weather on mobile